Time;durP1;ratioP1;P1;durP2;ratioP2;P2;SDS_P1;SDS_P2;PMS_P1;PMS_P2;Temp;Humidity;BMP_temperature;BMP_pressure;BME280_temperature;BME280_humidity;BME280_pressure;Samples;Min_cycle;Max_cycle;Signal;HPM_P1;HPM_P2
2023/04/28 00:02:03;;;;;;;11.40;6.72;;;;;;;9.88;71.45;101230.59;5051148;28;20608;-61
2023/04/28 00:04:30;;;;;;;12.73;7.03;;;;;;;9.86;71.64;101227.28;5034761;28;20044;-61
2023/04/28 00:06:58;;;;;;;12.38;6.65;;;;;;;9.88;72.03;101230.59;5035991;28;20104;-62
2023/04/28 00:09:26;;;;;;;14.05;7.03;;;;;;;9.86;72.37;101221.84;5018655;28;20053;-61
2023/04/28 00:11:54;;;;;;;13.35;7.15;;;;;;;9.79;72.55;101220.16;5035785;28;20167;-63
2023/04/28 00:14:22;;;;;;;12.30;7.30;;;;;;;9.79;73.01;101219.34;5035841;28;20057;-63
2023/04/28 00:16:49;;;;;;;11.32;6.65;;;;;;;9.80;72.55;101216.34;5046420;28;20076;-62
2023/04/28 00:19:18;;;;;;;11.75;6.80;;;;;;;9.86;72.53;101217.25;5055250;28;20051;-60
2023/04/28 00:21:46;;;;;;;14.43;6.82;;;;;;;9.87;74.04;101224.31;5044267;28;20502;-61
2023/04/28 00:24:13;;;;;;;14.57;7.53;;;;;;;9.83;74.50;101223.19;5035373;28;20132;-62
2023/04/28 00:26:41;;;;;;;12.60;7.47;;;;;;;9.78;75.88;101215.75;5036601;28;20061;-63
2023/04/28 00:29:09;;;;;;;12.75;7.47;;;;;;;9.76;76.49;101215.19;5044600;28;20037;-61
2023/04/28 00:31:37;;;;;;;14.07;7.28;;;;;;;9.74;76.63;101209.22;5054519;28;20123;-62
2023/04/28 00:34:04;;;;;;;14.02;7.47;;;;;;;9.76;76.74;101212.47;5050835;28;20140;-62
2023/04/28 00:36:32;;;;;;;13.10;7.25;;;;;;;9.71;77.63;101198.81;5035621;28;20344;-62
2023/04/28 00:39:00;;;;;;;14.15;7.43;;;;;;;9.72;77.58;101192.31;5017578;28;20536;-60
2023/04/28 00:41:28;;;;;;;14.32;8.02;;;;;;;9.74;77.42;101194.75;5032932;28;20559;-61
2023/04/28 00:43:55;;;;;;;12.98;7.57;;;;;;;9.76;77.54;101196.16;5034395;28;20059;-61
2023/04/28 00:46:31;;;;;;;12.30;7.28;;;;;;;9.74;78.93;101190.16;5034127;28;20041;-62
2023/04/28 00:48:58;;;;;;;11.48;7.53;;;;;;;9.71;80.70;101184.38;5022149;28;20086;-62
2023/04/28 00:51:27;;;;;;;11.75;7.50;;;;;;;9.68;81.13;101183.00;5055469;28;20055;-63
2023/04/28 00:53:56;;;;;;;11.48;7.80;;;;;;;9.68;81.07;101183.00;5033206;28;20128;-62
2023/04/28 00:56:26;;;;;;;12.15;7.55;;;;;;;9.64;80.89;101181.84;5014219;28;20054;-61
2023/04/28 00:58:54;;;;;;;13.10;7.57;;;;;;;9.60;81.25;101181.53;5031053;28;20072;-62
2023/04/28 01:01:22;;;;;;;14.93;8.23;;;;;;;9.63;80.75;101174.78;5033550;28;20041;-63
2023/04/28 01:03:49;;;;;;;12.90;7.50;;;;;;;9.62;81.53;101166.84;5034116;28;20099;-60
2023/04/28 01:06:19;;;;;;;11.48;7.47;;;;;;;9.53;81.30;101161.06;5034378;28;20052;-62
2023/04/28 01:08:49;;;;;;;14.23;7.60;;;;;;;9.52;82.15;101148.50;5015742;28;20120;-61
2023/04/28 01:11:17;;;;;;;13.45;8.07;;;;;;;9.49;82.78;101152.56;5016003;28;20050;-61
2023/04/28 01:14:05;;;;;;;11.45;7.25;;;;;;;9.45;83.07;101158.75;5031572;28;20053;-60
2023/04/28 01:16:38;;;;;;;13.82;8.32;;;;;;;9.45;83.43;101162.28;5034792;28;20511;-63
2023/04/28 01:19:07;;;;;;;12.68;7.53;;;;;;;9.44;83.82;101155.22;5001034;28;20549;-61
2023/04/28 01:21:38;;;;;;;11.00;7.57;;;;;;;9.46;83.33;101152.25;5035010;28;20073;-61
2023/04/28 01:24:16;;;;;;;12.38;7.30;;;;;;;9.49;83.30;101143.59;5034135;28;20049;-61
2023/04/28 01:26:45;;;;;;;15.00;7.60;;;;;;;9.45;84.68;101139.72;5054909;28;20149;-61
2023/04/28 01:29:12;;;;;;;14.55;8.02;;;;;;;9.42;84.52;101132.06;5052476;28;20041;-61
2023/04/28 01:31:41;;;;;;;11.55;7.68;;;;;;;9.39;84.97;101131.50;5048907;28;20042;-61
2023/04/28 01:34:10;;;;;;;13.45;7.70;;;;;;;9.38;84.77;101120.88;5036663;28;20051;-61
2023/04/28 01:36:38;;;;;;;13.27;8.00;;;;;;;9.35;83.73;101124.91;5034865;28;20136;-61
2023/04/28 01:39:05;;;;;;;12.52;8.10;;;;;;;9.34;83.61;101117.84;5039872;28;20038;-62
2023/04/28 01:41:33;;;;;;;12.07;7.57;;;;;;;9.35;83.21;101118.66;5041426;28;20044;-60
2023/04/28 01:44:01;;;;;;;11.35;7.97;;;;;;;9.35;83.35;101122.19;5055030;28;20052;-60
2023/04/28 01:46:29;;;;;;;12.52;7.05;;;;;;;9.38;83.25;101124.41;5049676;28;20050;-60
2023/04/28 01:48:58;;;;;;;11.63;7.53;;;;;;;9.38;83.58;101112.72;5034851;28;20045;-61
2023/04/28 01:51:26;;;;;;;14.15;7.65;;;;;;;9.35;83.76;101105.88;5032827;28;20472;-60
2023/04/28 01:53:54;;;;;;;13.38;7.53;;;;;;;9.35;83.92;101103.16;5033308;28;20116;-62
2023/04/28 01:56:22;;;;;;;11.57;7.22;;;;;;;9.33;84.41;101105.31;5000850;28;20042;-61
2023/04/28 01:58:51;;;;;;;12.70;8.32;;;;;;;9.35;83.82;101108.59;5018402;28;20053;-63
2023/04/28 02:01:19;;;;;;;14.07;8.02;;;;;;;9.37;83.77;101101.00;5053624;28;20049;-60
2023/04/28 02:03:49;;;;;;;11.82;8.00;;;;;;;9.30;83.71;101094.13;5014739;28;20045;-61
2023/04/28 02:06:17;;;;;;;13.18;7.80;;;;;;;9.26;84.47;101088.38;5021151;28;20045;-60
2023/04/28 02:08:45;;;;;;;12.13;7.10;;;;;;;9.28;84.13;101078.03;5033298;28;20160;-61
2023/04/28 02:11:13;;;;;;;11.73;8.05;;;;;;;9.29;84.50;101076.16;5032696;28;20046;-61
2023/04/28 02:13:41;;;;;;;14.18;7.97;;;;;;;9.26;84.97;101085.66;5033522;28;20084;-62
2023/04/28 02:16:09;;;;;;;11.55;8.10;;;;;;;9.27;85.11;101094.63;5020752;28;20045;-65
2023/04/28 02:18:37;;;;;;;13.05;8.00;;;;;;;9.32;84.74;101095.50;5033271;28;20541;-61
2023/04/28 02:21:11;;;;;;;14.48;7.95;;;;;;;9.34;84.13;101098.78;5015938;28;20524;-61
2023/04/28 02:23:39;;;;;;;12.95;8.25;;;;;;;9.34;84.74;101092.53;5033578;28;20573;-61
2023/04/28 02:26:07;;;;;;;13.23;8.45;;;;;;;9.33;84.85;101083.56;5034493;28;20057;-61
2023/04/28 02:28:35;;;;;;;14.02;8.23;;;;;;;9.32;85.21;101081.91;5035336;28;20104;-61
2023/04/28 02:31:09;;;;;;;12.73;7.97;;;;;;;9.33;85.10;101089.00;5031821;28;20068;-62
2023/04/28 02:33:38;;;;;;;17.00;9.25;;;;;;;9.32;84.79;101071.03;5033818;28;20482;-61
2023/04/28 02:36:06;;;;;;;14.32;8.15;;;;;;;9.32;85.03;101064.78;5066017;28;20049;-61
2023/04/28 02:38:34;;;;;;;14.93;8.70;;;;;;;9.32;85.15;101054.72;5031803;28;20493;-60
2023/04/28 02:41:04;;;;;;;15.10;8.70;;;;;;;9.33;85.13;101050.94;5031726;28;20049;-63
2023/04/28 02:43:32;;;;;;;11.85;8.05;;;;;;;9.29;86.70;101036.19;5048445;28;20496;-61
2023/04/28 02:46:02;;;;;;;11.57;8.18;;;;;;;9.25;87.08;101021.47;5015039;28;20038;-61
2023/04/28 02:48:31;;;;;;;14.73;8.98;;;;;;;9.27;87.09;101034.81;5024178;28;20079;-60
2023/04/28 02:50:59;;;;;;;12.10;8.43;;;;;;;9.27;87.26;101035.63;5041240;28;20448;-60
2023/04/28 02:53:27;;;;;;;16.67;9.55;;;;;;;9.27;87.71;101027.47;5051640;28;20037;-61
2023/04/28 02:55:55;;;;;;;13.93;8.52;;;;;;;9.29;88.03;101019.06;5024576;28;20045;-63
2023/04/28 02:58:23;;;;;;;15.55;8.18;;;;;;;9.28;88.52;101010.06;5037469;28;20559;-59
2023/04/28 03:00:51;;;;;;;16.55;9.60;;;;;;;9.27;89.48;101002.19;5033299;28;20116;-62
2023/04/28 03:03:18;;;;;;;12.88;8.35;;;;;;;9.21;89.29;101004.00;5043431;28;20203;-63
2023/04/28 03:05:46;;;;;;;16.70;8.55;;;;;;;9.20;90.18;100996.13;5041117;28;20493;-64
2023/04/28 03:08:15;;;;;;;15.57;9.07;;;;;;;9.20;90.53;100994.22;5044230;28;20400;-62
2023/04/28 03:10:43;;;;;;;13.07;9.32;;;;;;;9.21;90.73;100998.56;5051102;28;20042;-63
2023/04/28 03:13:11;;;;;;;15.13;8.73;;;;;;;9.22;91.41;100992.06;5043380;28;20046;-62
2023/04/28 03:15:39;;;;;;;17.70;9.70;;;;;;;9.22;91.76;101000.22;5034894;28;20115;-62
2023/04/28 03:18:07;;;;;;;16.23;9.13;;;;;;;9.24;92.40;100994.53;5017403;28;20049;-61
2023/04/28 03:20:35;;;;;;;17.35;8.73;;;;;;;9.24;92.61;101003.53;5020801;28;20042;-61
2023/04/28 03:23:04;;;;;;;14.63;8.57;;;;;;;9.27;92.88;101007.63;5014743;28;20046;-62
2023/04/28 03:25:32;;;;;;;14.45;9.32;;;;;;;9.29;93.13;101000.03;5050031;28;20081;-62
2023/04/28 03:28:00;;;;;;;15.73;9.52;;;;;;;9.33;93.87;100999.28;5032719;28;20413;-61
2023/04/28 03:30:28;;;;;;;14.20;8.52;;;;;;;9.32;93.63;101003.06;5032237;28;20057;-63
2023/04/28 03:32:57;;;;;;;15.68;9.02;;;;;;;9.29;93.74;100994.59;4999607;28;20045;-61
2023/04/28 03:35:25;;;;;;;16.13;9.63;;;;;;;9.30;94.73;100991.59;5033187;28;20045;-61
2023/04/28 03:37:53;;;;;;;14.77;9.77;;;;;;;9.30;94.78;100991.59;5016080;28;20145;-61
2023/04/28 03:40:20;;;;;;;14.93;10.00;;;;;;;9.31;94.62;100987.81;5040972;28;20497;-62
2023/04/28 03:43:09;;;;;;;14.85;9.25;;;;;;;9.34;95.15;100989.22;5051749;28;20053;-60
2023/04/28 03:45:42;;;;;;;14.32;8.98;;;;;;;9.35;95.30;100986.22;5035296;28;20552;-65
2023/04/28 03:48:10;;;;;;;17.10;10.10;;;;;;;9.36;96.38;100987.88;5048217;28;20392;-61
2023/04/28 03:50:39;;;;;;;16.40;10.02;;;;;;;9.36;96.41;100982.44;5032865;28;20046;-60
2023/04/28 03:53:07;;;;;;;17.98;10.65;;;;;;;9.34;97.67;100979.16;5016300;28;20088;-60
2023/04/28 03:55:35;;;;;;;15.18;9.13;;;;;;;9.31;98.36;100976.94;5032043;28;20045;-60
2023/04/28 03:58:03;;;;;;;16.27;9.93;;;;;;;9.31;99.04;100974.22;5020876;28;20512;-61
2023/04/28 04:00:31;;;;;;;16.27;9.73;;;;;;;9.30;99.29;100966.31;5031707;28;20489;-61
2023/04/28 04:02:58;;;;;;;19.55;11.02;;;;;;;9.30;100.00;100969.03;5013914;28;20080;-63
2023/04/28 04:05:26;;;;;;;16.30;10.13;;;;;;;9.33;100.00;100973.97;5044684;28;20095;-62
2023/04/28 04:07:55;;;;;;;21.90;10.75;;;;;;;9.35;100.00;100978.06;5032546;28;20065;-61
2023/04/28 04:10:23;;;;;;;16.48;10.35;;;;;;;9.37;100.00;100975.09;5031654;28;20559;-61
2023/04/28 04:12:51;;;;;;;18.38;11.02;;;;;;;9.39;100.00;100964.78;5031615;28;20046;-64
2023/04/28 04:15:19;;;;;;;19.10;11.10;;;;;;;9.38;100.00;100974.03;5031235;28;20049;-60
2023/04/28 04:17:48;;;;;;;17.50;10.00;;;;;;;9.37;100.00;100970.47;5034702;28;20083;-61
2023/04/28 04:20:16;;;;;;;18.65;10.77;;;;;;;9.37;100.00;100970.47;5034028;28;20128;-61
2023/04/28 04:22:45;;;;;;;16.92;10.30;;;;;;;9.34;100.00;100959.31;5034862;28;20496;-61
2023/04/28 04:25:14;;;;;;;19.13;10.02;;;;;;;9.32;100.00;100961.44;5034965;28;20057;-62
2023/04/28 04:27:46;;;;;;;15.90;10.18;;;;;;;9.32;100.00;100962.25;5035226;28;20041;-61
2023/04/28 04:30:14;;;;;;;15.05;9.70;;;;;;;9.36;100.00;100960.69;5032685;28;20116;-65
2023/04/28 04:32:42;;;;;;;17.38;10.57;;;;;;;9.44;100.00;100958.59;5032295;28;20050;-63
2023/04/28 04:35:10;;;;;;;15.70;10.00;;;;;;;9.49;100.00;100950.47;5031947;28;20045;-62
2023/04/28 04:37:38;;;;;;;19.80;10.68;;;;;;;9.50;100.00;100952.94;5033643;28;20049;-63
2023/04/28 04:40:06;;;;;;;15.80;10.88;;;;;;;9.51;100.00;100951.84;5002393;28;20049;-62
2023/04/28 04:42:40;;;;;;;17.30;11.00;;;;;;;9.51;100.00;100953.75;5034315;28;20055;-61
2023/04/28 04:45:16;;;;;;;18.70;10.88;;;;;;;9.51;100.00;100945.59;5035102;28;20067;-62
2023/04/28 04:47:44;;;;;;;17.90;10.43;;;;;;;9.51;100.00;100953.75;5037078;28;20148;-64
2023/04/28 04:50:12;;;;;;;17.73;11.05;;;;;;;9.50;100.00;100941.22;5054759;28;20048;-61
2023/04/28 04:52:40;;;;;;;15.13;10.68;;;;;;;9.51;100.00;100938.25;5054851;28;20069;-61
2023/04/28 04:55:10;;;;;;;17.88;10.73;;;;;;;9.55;100.00;100946.72;5033597;28;20055;-60
2023/04/28 04:57:40;;;;;;;16.33;11.65;;;;;;;9.57;100.00;100952.72;5034380;28;20045;-62
2023/04/28 05:00:37;;;;;;;17.05;11.35;;;;;;;9.59;100.00;100939.69;5022878;28;20049;-61
2023/04/28 05:03:05;;;;;;;19.83;11.80;;;;;;;9.59;100.00;100939.69;5031087;28;20111;-60
2023/04/28 05:05:33;;;;;;;17.88;12.07;;;;;;;9.58;100.00;100941.56;5047380;28;20045;-63
2023/04/28 05:08:29;;;;;;;21.15;13.13;;;;;;;9.57;100.00;100936.38;5020551;28;20501;-64
2023/04/28 05:10:57;;;;;;;17.90;12.40;;;;;;;9.57;100.00;100936.38;5038243;28;20092;-63
2023/04/28 05:13:35;;;;;;;19.40;12.95;;;;;;;9.59;100.00;100945.13;5039199;28;20400;-63
2023/04/28 05:16:04;;;;;;;17.08;11.05;;;;;;;9.59;100.00;100947.84;5044383;28;20056;-60
2023/04/28 05:18:55;;;;;;;18.83;11.20;;;;;;;9.58;100.00;100948.94;5044595;28;20125;-60
2023/04/28 05:21:23;;;;;;;15.68;10.70;;;;;;;9.58;100.00;100929.88;5015314;28;20042;-61
2023/04/28 05:23:51;;;;;;;17.77;12.25;;;;;;;9.58;100.00;100924.44;5049896;28;20052;-61
2023/04/28 05:26:19;;;;;;;19.77;12.70;;;;;;;9.56;100.00;100911.09;5037479;28;20513;-63
2023/04/28 05:28:47;;;;;;;20.35;12.30;;;;;;;9.56;100.00;100913.00;5032197;28;20045;-60
2023/04/28 05:31:15;;;;;;;19.00;12.50;;;;;;;9.55;100.00;100903.22;5033874;28;20113;-61
2023/04/28 05:33:43;;;;;;;18.42;11.80;;;;;;;9.55;100.00;100901.31;5035895;28;20103;-61
2023/04/28 05:36:11;;;;;;;21.90;12.23;;;;;;;9.54;100.00;100899.66;5034157;28;20079;-61
2023/04/28 05:38:39;;;;;;;21.17;11.57;;;;;;;9.56;100.00;100907.56;5032689;28;20045;-61
2023/04/28 05:41:07;;;;;;;17.85;11.38;;;;;;;9.58;100.00;100911.66;5032512;28;20057;-62
2023/04/28 05:43:35;;;;;;;16.60;10.82;;;;;;;9.60;100.00;100912.22;4337595;28;10000623;-63
2023/04/28 05:46:03;;;;;;;17.45;11.00;;;;;;;9.62;100.00;100914.69;5031760;28;20051;-63
2023/04/28 05:48:41;;;;;;;17.90;11.65;;;;;;;9.64;100.00;100923.38;5029038;28;20464;-63
2023/04/28 05:51:10;;;;;;;16.98;11.65;;;;;;;9.66;100.00;100918.50;5030303;28;20516;-62
2023/04/28 05:53:38;;;;;;;19.30;10.98;;;;;;;9.70;100.00;100916.94;5029829;28;20073;-64
2023/04/28 05:56:06;;;;;;;15.25;10.00;;;;;;;9.76;100.00;100902.25;4997427;28;20119;-63
2023/04/28 05:58:34;;;;;;;18.35;10.27;;;;;;;9.81;100.00;100893.31;5013549;28;20081;-64
2023/04/28 06:01:02;;;;;;;16.92;10.02;;;;;;;9.84;100.00;100909.16;5026591;28;20072;-64
2023/04/28 06:03:30;;;;;;;17.30;11.25;;;;;;;9.88;100.00;100909.44;5016323;28;20125;-64
2023/04/28 06:05:58;;;;;;;19.73;11.13;;;;;;;9.89;100.00;100911.09;5029249;28;20045;-63
2023/04/28 06:08:26;;;;;;;15.45;9.88;;;;;;;9.91;100.00;100914.34;5021265;28;20125;-63
2023/04/28 06:10:54;;;;;;;16.80;10.10;;;;;;;9.93;100.00;100906.75;5037891;28;20121;-62
2023/04/28 06:13:21;;;;;;;17.20;10.02;;;;;;;9.95;100.00;100910.03;5038028;28;20057;-65
2023/04/28 06:15:49;;;;;;;14.02;9.65;;;;;;;9.99;100.00;100913.88;5047832;28;20087;-64
2023/04/28 06:18:17;;;;;;;16.23;9.70;;;;;;;10.00;100.00;100912.78;5031459;28;20056;-63
2023/04/28 06:20:46;;;;;;;16.60;10.70;;;;;;;10.01;100.00;100914.44;5046526;28;20136;-65
2023/04/28 06:23:13;;;;;;;13.95;9.68;;;;;;;10.02;100.00;100925.03;5032383;28;20863;-61
2023/04/28 06:25:45;;;;;;;22.58;10.63;;;;;;;10.03;100.00;100923.16;5051688;28;20140;-61
2023/04/28 06:28:13;;;;;;;15.82;9.07;;;;;;;10.04;100.00;100924.78;5047072;28;20574;-60
2023/04/28 06:30:41;;;;;;;17.05;9.68;;;;;;;10.04;100.00;100911.19;5034079;28;20057;-63
2023/04/28 06:33:09;;;;;;;17.65;10.75;;;;;;;10.07;100.00;100907.94;4999232;28;20137;-63
2023/04/28 06:35:38;;;;;;;17.45;10.02;;;;;;;10.09;100.00;100905.78;5049593;28;20049;-61
2023/04/28 06:38:06;;;;;;;18.58;9.93;;;;;;;10.11;100.00;100895.44;5031530;28;20494;-63
2023/04/28 06:40:34;;;;;;;15.95;10.10;;;;;;;10.14;100.00;100902.25;5034195;28;20041;-60
2023/04/28 06:43:04;;;;;;;15.93;9.75;;;;;;;10.16;100.00;100909.06;5033602;28;20053;-64
2023/04/28 06:45:43;;;;;;;14.80;10.38;;;;;;;10.18;100.00;100898.75;5034033;28;20052;-63
2023/04/28 06:48:10;;;;;;;13.40;9.52;;;;;;;10.19;100.00;100908.53;5035718;28;20452;-61
2023/04/28 06:50:38;;;;;;;13.60;9.25;;;;;;;10.23;100.00;100906.94;5021346;28;20130;-62
2023/04/28 06:53:09;;;;;;;19.48;9.45;;;;;;;10.26;100.00;100908.31;5039813;28;20093;-63
2023/04/28 06:55:37;;;;;;;14.63;10.10;;;;;;;10.28;100.00;100910.78;5024049;28;20055;-63
2023/04/28 06:58:05;;;;;;;15.20;8.73;;;;;;;10.29;100.00;100912.44;5038139;28;20092;-62
2023/04/28 07:00:34;;;;;;;14.77;9.63;;;;;;;10.30;100.00;100911.38;5044018;28;20045;-63
2023/04/28 07:03:01;;;;;;;18.20;9.85;;;;;;;10.31;100.00;100902.13;5038846;28;20053;-61
2023/04/28 07:05:30;;;;;;;15.82;9.60;;;;;;;10.30;100.00;100903.22;5039118;28;20101;-61
2023/04/28 07:07:57;;;;;;;16.25;9.30;;;;;;;10.31;100.00;100893.94;5015283;28;20048;-61
2023/04/28 07:10:25;;;;;;;15.50;10.38;;;;;;;10.30;100.00;100897.75;5029657;28;20084;-64
2023/04/28 07:12:53;;;;;;;20.00;9.43;;;;;;;10.33;100.00;100891.78;5032532;28;20041;-64
2023/04/28 07:15:21;;;;;;;17.15;9.80;;;;;;;10.34;100.00;100890.69;5048600;28;20077;-62
2023/04/28 07:17:49;;;;;;;17.02;9.13;;;;;;;10.36;100.00;100891.25;5031820;28;20052;-62
2023/04/28 07:20:17;;;;;;;18.17;9.60;;;;;;;10.37;100.00;100890.19;5032891;28;20057;-63
2023/04/28 07:22:45;;;;;;;19.23;10.43;;;;;;;10.39;100.00;100886.09;5031635;28;20077;-60
2023/04/28 07:25:12;;;;;;;16.25;8.68;;;;;;;10.42;100.00;100892.91;5040163;28;20060;-61
2023/04/28 07:27:40;;;;;;;15.65;9.25;;;;;;;10.47;100.00;100884.78;4665946;28;10000043;-63
2023/04/28 07:30:08;;;;;;;16.27;10.07;;;;;;;10.52;100.00;100882.06;5030353;28;20080;-62
2023/04/28 07:32:57;;;;;;;13.60;8.80;;;;;;;10.56;100.00;100888.63;5028669;28;20148;-63
2023/04/28 07:35:25;;;;;;;16.30;9.02;;;;;;;10.60;100.00;100878.81;5045086;28;20049;-65
2023/04/28 07:37:53;;;;;;;17.05;8.75;;;;;;;10.62;100.00;100876.66;5029132;28;20056;-64
2023/04/28 07:40:21;;;;;;;15.23;9.13;;;;;;;10.65;100.00;100892.47;5028427;28;20049;-61
2023/04/28 07:42:50;;;;;;;17.45;9.27;;;;;;;10.66;100.00;100883.22;5032058;28;20129;-61
2023/04/28 07:45:18;;;;;;;13.80;8.73;;;;;;;10.68;100.00;100880.22;5030578;28;20095;-64
2023/04/28 07:47:45;;;;;;;12.88;8.70;;;;;;;10.70;100.00;100888.13;5031580;28;20397;-61
2023/04/28 07:50:13;;;;;;;16.25;9.82;;;;;;;10.70;100.00;100888.13;5033704;28;20482;-61
2023/04/28 07:52:41;;;;;;;17.15;9.68;;;;;;;10.70;100.00;100888.94;5045878;28;20053;-60
2023/04/28 07:55:09;;;;;;;17.48;9.45;;;;;;;10.70;100.00;100888.13;5042829;28;20046;-61
2023/04/28 07:57:36;;;;;;;19.08;10.80;;;;;;;10.71;100.00;100893.31;5019207;28;20469;-64
2023/04/28 08:00:05;;;;;;;16.40;10.63;;;;;;;10.71;100.00;100889.78;5033695;28;20116;-61
2023/04/28 08:02:38;;;;;;;15.82;9.15;;;;;;;10.71;100.00;100889.78;5035914;28;20057;-60
2023/04/28 08:05:07;;;;;;;12.30;8.80;;;;;;;10.71;100.00;100895.22;5036639;28;20473;-62
2023/04/28 08:07:36;;;;;;;25.55;9.60;;;;;;;10.74;100.00;100900.13;5035098;28;20433;-64
2023/04/28 08:10:05;;;;;;;21.55;9.73;;;;;;;10.79;100.00;100902.88;5036402;28;20045;-62
2023/04/28 08:12:32;;;;;;;13.05;8.40;;;;;;;10.84;100.00;100906.41;5036012;28;20057;-63
2023/04/28 08:15:02;;;;;;;16.33;8.90;;;;;;;10.85;100.00;100901.81;5034823;28;20065;-63
2023/04/28 08:17:30;;;;;;;15.27;9.13;;;;;;;10.86;100.00;100908.88;5036056;28;20049;-63
2023/04/28 08:19:58;;;;;;;16.65;9.27;;;;;;;10.86;100.00;100900.72;5035134;28;20056;-61
2023/04/28 08:22:26;;;;;;;14.45;9.93;;;;;;;10.86;100.00;100898.00;5040666;28;20063;-62
2023/04/28 08:24:53;;;;;;;16.95;10.15;;;;;;;10.91;100.00;100892.53;5052042;28;20132;-63
2023/04/28 08:27:22;;;;;;;14.27;10.27;;;;;;;10.93;100.00;100895.00;5044365;28;20061;-62
2023/04/28 08:29:50;;;;;;;17.63;10.63;;;;;;;10.94;100.00;100894.72;5035125;28;20065;-62
2023/04/28 08:32:18;;;;;;;17.17;10.07;;;;;;;10.97;100.00;100894.22;5036074;28;20050;-61
2023/04/28 08:34:46;;;;;;;14.82;9.80;;;;;;;10.99;100.00;100897.50;5036301;28;20061;-62
2023/04/28 08:37:14;;;;;;;14.25;8.88;;;;;;;11.01;100.00;100895.28;5035906;28;20073;-62
2023/04/28 08:39:41;;;;;;;12.63;8.82;;;;;;;11.02;100.00;100902.41;5036150;28;20107;-63
2023/04/28 08:42:09;;;;;;;18.02;9.55;;;;;;;11.03;100.00;100903.22;5035755;28;20075;-60
2023/04/28 08:44:40;;;;;;;15.02;9.55;;;;;;;11.05;100.00;100904.56;5035910;28;20430;-62
2023/04/28 08:47:14;;;;;;;10.60;7.45;;;;;;;11.05;100.00;100901.84;5035436;28;20046;-62
2023/04/28 08:49:42;;;;;;;17.30;7.53;;;;;;;11.09;100.00;100892.06;5036604;28;20045;-62
2023/04/28 08:52:11;;;;;;;13.48;7.90;;;;;;;11.12;100.00;100900.78;5051784;28;20049;-62
2023/04/28 08:54:40;;;;;;;17.67;8.23;;;;;;;11.15;100.00;100900.25;5051706;28;20049;-62
2023/04/28 08:57:09;;;;;;;14.38;8.60;;;;;;;11.15;100.00;100897.50;5014825;28;20050;-61
2023/04/28 08:59:40;;;;;;;15.48;8.05;;;;;;;11.17;100.00;100898.06;5016078;28;20050;-62
2023/04/28 09:02:08;;;;;;;13.18;8.88;;;;;;;11.20;100.00;100903.78;5015080;28;20513;-63
2023/04/28 09:04:36;;;;;;;16.33;8.85;;;;;;;11.25;100.00;100894.78;5013935;28;20050;-63
2023/04/28 09:07:10;;;;;;;14.95;8.88;;;;;;;11.25;100.00;100895.59;5026576;28;20400;-62
2023/04/28 09:09:39;;;;;;;16.10;8.18;;;;;;;11.29;100.00;100891.25;5031408;28;20049;-63
2023/04/28 09:12:07;;;;;;;15.00;8.07;;;;;;;11.29;100.00;100895.91;4334985;28;10000546;-63
2023/04/28 09:14:37;;;;;;;15.02;7.25;;;;;;;11.31;100.00;100893.72;5032192;28;20132;-65
2023/04/28 09:17:11;;;;;;;16.75;7.47;;;;;;;11.32;100.00;100895.34;5030099;28;20041;-63
2023/04/28 09:19:42;;;;;;;19.33;7.50;;;;;;;11.34;100.00;100897.81;5041364;28;20507;-63
2023/04/28 09:22:10;;;;;;;48.17;9.27;;;;;;;11.34;100.00;100898.63;5031245;28;20049;-63
2023/04/28 09:24:54;;;;;;;12.55;6.93;;;;;;;11.36;100.00;100896.47;5031803;28;20509;-64
2023/04/28 09:27:28;;;;;;;17.65;7.50;;;;;;;11.38;100.00;100899.75;5030615;28;20065;-65
2023/04/28 09:29:56;;;;;;;12.77;6.75;;;;;;;11.40;100.00;100894.00;5031027;28;20053;-64
2023/04/28 09:32:26;;;;;;;10.23;7.03;;;;;;;11.41;100.00;100891.00;5036689;28;20057;-64
2023/04/28 09:34:58;;;;;;;11.57;7.10;;;;;;;11.45;100.00;100883.09;5030242;28;20050;-64
2023/04/28 09:37:29;;;;;;;11.65;8.48;;;;;;;11.47;100.00;100892.66;5030344;28;20164;-64
2023/04/28 09:40:08;;;;;;;10.25;7.80;;;;;;;11.52;100.00;100883.66;5042708;28;20056;-64
2023/04/28 09:42:42;;;;;;;12.98;8.18;;;;;;;11.56;100.00;100894.81;5050127;28;20386;-63
2023/04/28 09:45:15;;;;;;;12.75;7.00;;;;;;;11.58;100.00;100892.66;5029291;28;20064;-64
2023/04/28 09:47:45;;;;;;;13.23;7.88;;;;;;;11.60;100.00;100887.75;5031062;28;20045;-63
2023/04/28 09:50:15;;;;;;;14.07;8.93;;;;;;;11.62;100.00;100893.75;5030582;28;20061;-64
2023/04/28 09:52:48;;;;;;;12.32;9.05;;;;;;;11.64;100.00;100897.00;5031026;28;20061;-63
2023/04/28 09:55:19;;;;;;;12.82;9.95;;;;;;;11.63;100.00;100885.28;5029276;28;20504;-63
2023/04/28 09:57:48;;;;;;;13.07;9.02;;;;;;;11.64;100.00;100892.38;5029005;28;20132;-64
2023/04/28 10:00:16;;;;;;;15.10;10.30;;;;;;;11.65;100.00;100890.47;5029829;28;20072;-64
2023/04/28 10:02:50;;;;;;;14.32;7.63;;;;;;;11.64;100.00;100894.25;5029515;28;20045;-63
2023/04/28 10:05:18;;;;;;;16.42;8.30;;;;;;;11.64;100.00;100897.00;5029582;28;20053;-65
2023/04/28 10:07:46;;;;;;;15.98;11.48;;;;;;;11.69;100.00;100897.84;5013230;28;20087;-65
2023/04/28 10:10:15;;;;;;;23.10;13.35;;;;;;;11.74;100.00;100897.00;5009490;28;20069;-64
2023/04/28 10:12:43;;;;;;;16.98;12.90;;;;;;;11.77;100.00;100891.00;5015405;28;20057;-65
2023/04/28 10:15:14;;;;;;;18.58;13.52;;;;;;;11.79;100.00;100896.19;5026308;28;20100;-63
2023/04/28 10:17:41;;;;;;;17.60;13.43;;;;;;;11.79;100.00;100891.56;5030778;28;20103;-62
2023/04/28 10:20:10;;;;;;;20.15;13.95;;;;;;;11.80;100.00;100890.44;5028564;28;20525;-64
2023/04/28 10:22:57;;;;;;;19.23;13.70;;;;;;;11.82;100.00;100887.44;5012528;28;20765;-62
2023/04/28 10:25:30;;;;;;;19.13;14.65;;;;;;;11.81;100.00;100881.19;5028889;28;20176;-61
2023/04/28 10:27:59;;;;;;;20.30;14.65;;;;;;;11.83;100.00;100889.88;5013521;28;20076;-65
2023/04/28 10:30:28;;;;;;;19.73;15.23;;;;;;;11.84;100.00;100891.53;5032825;28;20043;-63
2023/04/28 10:33:14;;;;;;;43.80;19.40;;;;;;;11.87;100.00;100891.00;5030822;28;20046;-64
2023/04/28 10:35:46;;;;;;;19.40;14.27;;;;;;;11.88;100.00;100884.47;5029800;28;20042;-62
2023/04/28 10:38:20;;;;;;;19.40;14.57;;;;;;;11.90;100.00;100890.44;5029338;28;20049;-63
2023/04/28 10:40:49;;;;;;;19.40;15.52;;;;;;;11.91;100.00;100886.66;5026157;28;20053;-62
2023/04/28 10:43:30;;;;;;;20.42;15.48;;;;;;;11.93;100.00;100884.47;5009168;28;20168;-64
2023/04/28 10:46:01;;;;;;;21.25;15.52;;;;;;;11.93;100.00;100889.94;5023878;28;20133;-62
2023/04/28 10:48:31;;;;;;;20.02;15.10;;;;;;;11.93;100.00;100889.13;5043711;28;20094;-61
2023/04/28 10:51:21;;;;;;;87.20;28.17;;;;;;;11.97;100.00;100881.19;5050241;28;20076;-62
2023/04/28 10:53:50;;;;;;;23.20;17.23;;;;;;;11.99;100.00;100870.81;5048215;28;20042;-65
2023/04/28 10:56:18;;;;;;;23.42;16.92;;;;;;;12.00;100.00;100878.72;5040851;28;20071;-64
2023/04/28 10:58:50;;;;;;;19.13;16.40;;;;;;;12.05;100.00;100880.59;5018789;28;20060;-63
2023/04/28 11:01:20;;;;;;;20.13;16.45;;;;;;;12.07;100.00;100881.16;5032762;28;20055;-63
2023/04/28 11:03:50;;;;;;;21.70;17.25;;;;;;;12.10;100.00;100880.63;5035966;28;20050;-64
2023/04/28 11:06:25;;;;;;;20.80;17.63;;;;;;;12.10;100.00;100877.88;5093963;28;20064;-63
2023/04/28 11:09:02;;;;;;;27.67;21.05;;;;;;;12.13;100.00;100882.78;5057727;28;20041;-63
2023/04/28 11:11:33;;;;;;;28.27;22.27;;;;;;;12.14;100.00;100887.13;5034080;28;20049;-64
2023/04/28 11:14:19;;;;;;;28.88;23.40;;;;;;;12.14;100.00;100887.13;5033289;28;20038;-62
2023/04/28 11:16:55;;;;;;;71.90;41.60;;;;;;;12.17;100.00;100883.88;5033953;28;20433;-62
2023/04/28 11:19:25;;;;;;;66.97;41.25;;;;;;;12.20;100.00;100877.84;5034074;28;20045;-63
2023/04/28 11:21:54;;;;;;;45.92;24.17;;;;;;;12.23;100.00;100863.63;5036430;28;20080;-64
2023/04/28 11:24:27;;;;;;;32.28;24.45;;;;;;;12.27;100.00;100867.44;5034576;28;20045;-63
2023/04/28 11:26:56;;;;;;;30.48;24.08;;;;;;;12.28;100.00;100869.06;5038791;28;20128;-63